createdAt,value
2018-12-25T00:02:10.235Z,0.55
2018-12-25T00:04:40.702Z,0.78
2018-12-25T00:07:11.037Z,0.88
2018-12-25T00:09:41.367Z,0.90
2018-12-25T00:12:11.802Z,0.95
2018-12-25T00:14:42.256Z,1.42
2018-12-25T00:17:12.729Z,1.80
2018-12-25T00:19:43.087Z,0.95
2018-12-25T00:22:14.770Z,1.50
2018-12-25T00:24:45.148Z,0.80
2018-12-25T00:27:15.482Z,0.60
2018-12-25T00:29:45.965Z,0.47
2018-12-25T00:32:16.408Z,0.70
2018-12-25T00:34:46.738Z,0.40
2018-12-25T00:37:17.107Z,0.70
2018-12-25T00:39:48.458Z,0.57
2018-12-25T00:42:19.022Z,0.60
2018-12-25T00:44:49.451Z,0.68
2018-12-25T00:47:20.311Z,0.40
2018-12-25T00:49:52.400Z,0.50
2018-12-25T00:52:22.819Z,0.55
2018-12-25T00:54:53.288Z,0.55
2018-12-25T00:57:29.774Z,0.42
2018-12-25T01:00:00.214Z,0.40
2018-12-25T01:02:30.580Z,0.40
2018-12-25T01:05:00.997Z,0.60
2018-12-25T01:07:31.411Z,0.57
2018-12-25T01:10:01.783Z,0.37
2018-12-25T01:12:32.127Z,0.53
2018-12-25T01:15:02.545Z,0.57
2018-12-25T01:17:32.997Z,0.80
2018-12-25T01:20:03.596Z,0.75
2018-12-25T01:22:34.682Z,0.70
2018-12-25T01:25:05.226Z,0.93
2018-12-25T01:27:36.878Z,0.90
2018-12-25T01:30:07.708Z,0.70
2018-12-25T01:32:40.939Z,0.60
2018-12-25T01:35:11.359Z,0.60
2018-12-25T01:37:41.808Z,0.88
2018-12-25T01:40:12.308Z,0.72
2018-12-25T01:42:42.676Z,0.40
2018-12-25T01:45:24.846Z,0.57
2018-12-25T01:47:55.225Z,0.57
2018-12-25T01:50:25.588Z,0.70
2018-12-25T01:52:56.242Z,0.90
2018-12-25T01:55:26.572Z,0.70
2018-12-25T01:57:56.910Z,0.70
2018-12-25T02:00:27.307Z,0.70
2018-12-25T02:02:58.610Z,0.98
2018-12-25T02:05:28.982Z,2.05
2018-12-25T02:07:59.429Z,3.02
2018-12-25T02:10:29.773Z,3.72
2018-12-25T02:13:00.109Z,2.80
2018-12-25T02:15:30.435Z,1.67
2018-12-25T02:18:00.788Z,1.17
2018-12-25T02:20:31.255Z,0.90
2018-12-25T02:23:01.915Z,0.55
2018-12-25T02:25:32.235Z,0.62
2018-12-25T02:28:02.599Z,0.68
2018-12-25T02:30:33.034Z,0.65
2018-12-25T02:33:03.495Z,0.70
2018-12-25T02:35:33.897Z,0.53
2018-12-25T02:38:05.083Z,0.60
2018-12-25T02:40:35.411Z,1.30
2018-12-25T02:43:05.977Z,0.90
2018-12-25T02:45:36.414Z,0.95
2018-12-25T02:48:07.279Z,0.85
2018-12-25T02:50:37.689Z,0.50
2018-12-25T02:53:08.359Z,0.53
2018-12-25T02:55:38.715Z,0.82
2018-12-25T02:58:09.371Z,0.82
2018-12-25T03:00:39.914Z,0.57
2018-12-25T03:03:10.412Z,0.70
2018-12-25T03:05:40.840Z,0.65
2018-12-25T03:08:11.458Z,0.80
2018-12-25T03:10:41.896Z,1.07
2018-12-25T03:13:12.360Z,0.88
2018-12-25T03:15:42.792Z,1.00
2018-12-25T03:18:13.146Z,1.12
2018-12-25T03:20:44.305Z,0.82
2018-12-25T03:23:15.511Z,0.75
2018-12-25T03:25:45.897Z,0.78
2018-12-25T03:28:16.380Z,0.80
2018-12-25T03:30:46.879Z,0.35
2018-12-25T03:33:17.320Z,0.70
2018-12-25T03:35:47.792Z,0.70
2018-12-25T03:38:18.239Z,0.70
2018-12-25T03:40:48.988Z,0.70
2018-12-25T03:43:19.407Z,0.80
2018-12-25T03:45:49.785Z,0.90
2018-12-25T03:48:20.131Z,0.75
2018-12-25T03:50:50.876Z,0.70
2018-12-25T03:53:21.314Z,0.85
2018-12-25T03:55:53.491Z,1.00
2018-12-25T03:58:23.830Z,0.98
2018-12-25T04:00:54.202Z,0.80
2018-12-25T04:03:24.627Z,0.90
2018-12-25T04:05:55.107Z,0.80
2018-12-25T04:08:26.765Z,0.90
2018-12-25T04:10:57.221Z,0.70
2018-12-25T04:13:28.488Z,0.70
2018-12-25T04:15:58.898Z,1.10
2018-12-25T04:18:29.619Z,0.82
2018-12-25T04:21:01.673Z,0.98
2018-12-25T04:23:32.755Z,1.10
2018-12-25T04:26:03.197Z,0.80
2018-12-25T04:28:34.450Z,1.00
2018-12-25T04:31:04.828Z,1.30
2018-12-25T04:33:35.184Z,0.82
2018-12-25T04:36:05.660Z,0.93
2018-12-25T04:38:36.075Z,1.00
2018-12-25T04:41:06.431Z,1.30
2018-12-25T04:43:36.754Z,1.35
2018-12-25T04:46:07.109Z,0.90
2018-12-25T04:48:37.357Z,1.15
2018-12-25T04:51:07.847Z,1.30
2018-12-25T04:53:38.133Z,1.05
2018-12-25T04:56:08.477Z,1.20
2018-12-25T04:58:39.423Z,1.22
2018-12-25T05:01:09.798Z,1.30
2018-12-25T05:03:40.272Z,0.93
2018-12-25T05:06:11.375Z,1.40
2018-12-25T05:08:41.715Z,1.25
2018-12-25T05:11:12.070Z,1.30
2018-12-25T05:13:42.420Z,1.00
2018-12-25T05:16:13.012Z,1.30
2018-12-25T05:18:44.122Z,1.47
2018-12-25T05:21:14.474Z,1.35
2018-12-25T05:23:45.525Z,1.20
2018-12-25T05:26:15.867Z,1.65
2018-12-25T05:28:46.224Z,1.35
2018-12-25T05:31:17.523Z,1.22
2018-12-25T05:33:49.359Z,1.35
2018-12-25T05:36:19.703Z,1.40
2018-12-25T05:38:50.098Z,1.32
2018-12-25T05:41:20.685Z,1.47
2018-12-25T05:43:51.035Z,1.30
2018-12-25T05:46:22.345Z,1.60
2018-12-25T05:48:52.585Z,1.30
2018-12-25T05:51:23.013Z,1.40
2018-12-25T05:53:53.426Z,1.45
2018-12-25T05:56:24.907Z,1.57
2018-12-25T05:58:55.968Z,1.80
2018-12-25T06:01:26.922Z,1.75
2018-12-25T06:03:57.587Z,1.47
2018-12-25T06:06:28.003Z,1.80
2018-12-25T06:08:58.508Z,1.75
2018-12-25T06:11:29.218Z,1.50
2018-12-25T06:14:00.566Z,1.52
2018-12-25T06:16:30.988Z,1.95
2018-12-25T06:19:01.367Z,1.67
2018-12-25T06:21:31.732Z,1.75
2018-12-25T06:24:03.234Z,1.92
2018-12-25T06:26:33.649Z,1.90
2018-12-25T06:29:04.040Z,1.90
2018-12-25T06:31:34.483Z,1.70
2018-12-25T06:34:04.865Z,1.80
2018-12-25T06:36:35.323Z,1.85
2018-12-25T06:39:07.756Z,2.00
2018-12-25T06:41:38.055Z,1.80
2018-12-25T06:44:08.451Z,2.30
2018-12-25T06:46:38.822Z,1.72
2018-12-25T06:49:09.888Z,2.12
2018-12-25T06:51:43.005Z,1.98
2018-12-25T06:54:13.460Z,2.02
2018-12-25T06:56:43.914Z,2.30
2018-12-25T06:59:14.235Z,1.65
2018-12-25T07:01:44.603Z,2.20
2018-12-25T07:04:15.014Z,2.12
2018-12-25T07:06:47.000Z,2.27
2018-12-25T07:09:17.492Z,1.90
2018-12-25T07:11:47.910Z,2.25
2018-12-25T07:14:18.239Z,1.90
2018-12-25T07:16:48.622Z,2.08
2018-12-25T07:19:19.024Z,1.90
2018-12-25T07:21:51.019Z,1.90
2018-12-25T07:24:22.012Z,1.75
2018-12-25T07:26:52.417Z,1.80
2018-12-25T07:29:22.762Z,2.25
2018-12-25T07:31:55.075Z,1.80
2018-12-25T07:34:25.799Z,1.70
2018-12-25T07:36:56.161Z,1.77
2018-12-25T07:39:26.494Z,2.12
2018-12-25T07:41:57.251Z,2.02
2018-12-25T07:44:28.402Z,1.90
2018-12-25T07:46:58.879Z,2.17
2018-12-25T07:49:29.298Z,1.77
2018-12-25T07:51:59.637Z,2.10
2018-12-25T07:54:30.907Z,2.20
2018-12-25T07:57:02.061Z,2.92
2018-12-25T07:59:32.820Z,3.00
2018-12-25T08:02:03.397Z,2.70
2018-12-25T08:04:33.694Z,2.25
2018-12-25T08:07:04.040Z,2.02
2018-12-25T08:09:34.651Z,2.35
2018-12-25T08:12:05.040Z,2.45
2018-12-25T08:14:36.402Z,2.15
2018-12-25T08:17:06.838Z,2.10
2018-12-25T08:19:37.198Z,2.22
2018-12-25T08:22:07.636Z,2.12
2018-12-25T08:24:41.515Z,1.87
2018-12-25T08:27:11.879Z,2.35
2018-12-25T08:29:43.878Z,2.27
2018-12-25T08:32:18.337Z,2.25
2018-12-25T08:34:51.309Z,2.10
2018-12-25T08:37:22.111Z,2.22
2018-12-25T08:40:00.408Z,2.20
2018-12-25T08:42:30.848Z,1.72
2018-12-25T08:45:02.029Z,2.33
2018-12-25T08:47:32.363Z,2.47
2018-12-25T08:50:02.754Z,2.37
2018-12-25T08:52:33.163Z,1.70
2018-12-25T08:55:03.798Z,2.08
2018-12-25T08:57:34.962Z,1.90
2018-12-25T09:00:08.835Z,1.90
2018-12-25T09:02:39.596Z,1.90
2018-12-25T09:05:10.048Z,1.90
2018-12-25T09:07:40.474Z,2.10
2018-12-25T09:10:10.874Z,2.05
2018-12-25T09:12:41.385Z,1.60
2018-12-25T09:15:12.127Z,2.00
2018-12-25T09:17:42.504Z,2.10
2018-12-25T09:20:13.837Z,2.10
2018-12-25T09:22:44.323Z,2.25
2018-12-25T09:25:15.115Z,1.85
2018-12-25T09:27:45.600Z,1.87
2018-12-25T09:30:15.962Z,1.75
2018-12-25T09:32:46.340Z,1.80
2018-12-25T09:35:16.751Z,2.05
2018-12-25T09:37:47.240Z,1.95
2018-12-25T09:40:19.651Z,1.82
2018-12-25T09:42:50.059Z,1.80
2018-12-25T09:45:20.521Z,1.75
2018-12-25T09:47:50.979Z,1.60
2018-12-25T09:50:21.448Z,1.65
2018-12-25T09:52:52.311Z,1.45
2018-12-25T09:55:22.793Z,1.17
2018-12-25T09:57:53.223Z,1.25
2018-12-25T10:00:23.560Z,1.30
2018-12-25T10:02:54.019Z,1.45
2018-12-25T10:05:24.971Z,1.30
2018-12-25T10:07:59.668Z,1.37
2018-12-25T10:10:31.434Z,1.52
2018-12-25T10:13:01.830Z,1.22
2018-12-25T10:15:34.942Z,1.40
2018-12-25T10:18:05.413Z,1.20
2018-12-25T10:20:35.811Z,1.15
2018-12-25T10:23:06.275Z,1.40
2018-12-25T10:25:38.128Z,1.35
2018-12-25T10:28:08.500Z,1.05
2018-12-25T10:30:38.978Z,1.22
2018-12-25T10:33:09.387Z,1.02
2018-12-25T10:35:39.847Z,1.20
2018-12-25T10:38:11.004Z,1.00
2018-12-25T10:40:41.384Z,1.42
2018-12-25T10:43:11.808Z,1.30
2018-12-25T10:45:42.224Z,1.22
2018-12-25T10:48:12.769Z,1.10
2018-12-25T10:50:43.396Z,1.10
2018-12-25T10:53:13.673Z,1.22
2018-12-25T10:55:44.316Z,1.27
2018-12-25T10:58:14.811Z,1.32
2018-12-25T11:00:49.352Z,1.17
2018-12-25T11:03:19.779Z,1.02
2018-12-25T11:05:51.215Z,1.40
2018-12-25T11:08:21.687Z,1.52
2018-12-25T11:10:52.127Z,0.90
2018-12-25T11:13:22.743Z,1.00
2018-12-25T11:15:53.744Z,1.20
2018-12-25T11:18:24.169Z,1.40
2018-12-25T11:20:54.555Z,1.45
2018-12-25T11:23:24.987Z,1.00
2018-12-25T11:25:55.873Z,1.25
2018-12-25T11:28:26.266Z,1.10
2018-12-25T11:30:56.906Z,1.32
2018-12-25T11:33:27.396Z,1.02
2018-12-25T11:35:57.813Z,0.95
2018-12-25T11:38:28.259Z,1.30
2018-12-25T11:40:58.705Z,1.20
2018-12-25T11:43:29.194Z,1.42
2018-12-25T11:45:59.795Z,1.20
2018-12-25T11:48:30.150Z,0.90
2018-12-25T11:51:00.562Z,1.42
2018-12-25T11:53:31.082Z,1.02
2018-12-25T11:56:01.575Z,1.05
2018-12-25T11:58:32.077Z,1.27
2018-12-25T12:01:02.487Z,1.05
2018-12-25T12:03:32.915Z,1.40
2018-12-25T12:06:03.341Z,1.10
2018-12-25T12:08:33.792Z,1.40
2018-12-25T12:11:05.875Z,1.10
2018-12-25T12:13:36.217Z,1.15
2018-12-25T12:16:07.054Z,1.30
2018-12-25T12:18:37.640Z,1.65
2018-12-25T12:21:08.958Z,1.27
2018-12-25T12:23:39.421Z,1.40
2018-12-25T12:26:10.668Z,1.40
2018-12-25T12:28:41.265Z,1.60
2018-12-25T12:31:11.789Z,1.50
2018-12-25T12:33:42.283Z,1.47
2018-12-25T12:36:12.705Z,1.62
2018-12-25T12:38:43.368Z,1.40
2018-12-25T12:41:13.686Z,1.70
2018-12-25T12:43:45.123Z,1.50
2018-12-25T12:46:15.995Z,1.77
2018-12-25T12:48:46.474Z,1.65
2018-12-25T12:51:17.024Z,1.80
2018-12-25T12:53:47.468Z,2.17
2018-12-25T12:56:18.631Z,1.90
2018-12-25T12:58:49.075Z,1.80
2018-12-25T13:01:19.547Z,1.92
2018-12-25T13:03:49.976Z,1.60
2018-12-25T13:06:20.437Z,2.27
2018-12-25T13:08:50.895Z,1.98
2018-12-25T13:11:21.342Z,2.45
2018-12-25T13:13:51.956Z,2.25
2018-12-25T13:16:22.373Z,1.92
2018-12-25T13:18:53.606Z,2.27
2018-12-25T13:21:24.910Z,2.10
2018-12-25T13:23:57.459Z,2.35
2018-12-25T13:26:28.915Z,2.20
2018-12-25T13:29:05.455Z,2.83
2018-12-25T13:31:37.443Z,2.37
2018-12-25T13:34:11.721Z,2.50
2018-12-25T13:36:47.248Z,2.33
2018-12-25T13:39:19.828Z,2.42
2018-12-25T13:41:50.967Z,2.45
2018-12-25T13:44:22.017Z,2.55
2018-12-25T13:46:54.972Z,2.77
2018-12-25T13:49:29.977Z,2.98
2018-12-25T13:52:02.059Z,2.60
2018-12-25T13:54:33.847Z,2.83
2018-12-25T13:57:06.120Z,2.77
2018-12-25T13:59:37.951Z,3.05
2018-12-25T14:02:11.076Z,3.02
2018-12-25T14:04:44.795Z,3.20
2018-12-25T14:07:17.281Z,2.70
2018-12-25T14:09:49.594Z,2.92
2018-12-25T14:12:20.832Z,2.70
2018-12-25T14:14:53.626Z,3.02
2018-12-25T14:17:30.689Z,3.08
2018-12-25T14:20:05.442Z,2.98
2018-12-25T14:22:37.540Z,3.20
2018-12-25T14:25:08.858Z,3.70
2018-12-25T14:27:39.859Z,4.80
2018-12-25T14:30:12.907Z,6.00
2018-12-25T14:32:43.387Z,4.33
2018-12-25T14:35:15.408Z,6.60
2018-12-25T14:37:45.881Z,4.42
2018-12-25T14:40:17.643Z,4.28
2018-12-25T14:42:48.360Z,3.90
2018-12-25T14:45:23.108Z,8.30
2018-12-25T14:47:53.481Z,7.22
2018-12-25T14:50:24.864Z,5.47
2018-12-25T14:53:02.089Z,9.18
2018-12-25T14:55:35.538Z,5.87
2018-12-25T14:58:08.020Z,4.83
2018-12-25T15:00:39.263Z,4.20
2018-12-25T15:03:10.372Z,4.35
2018-12-25T15:05:43.379Z,4.65
2018-12-25T15:08:16.178Z,4.28
2018-12-25T15:13:08.471Z,3.67
2018-12-25T15:15:38.815Z,3.75
2018-12-25T15:18:09.319Z,4.35
2018-12-25T15:20:39.792Z,5.40
2018-12-25T15:23:10.268Z,5.10
2018-12-25T15:25:40.587Z,5.08
2018-12-25T15:28:11.232Z,5.40
2018-12-25T15:30:41.620Z,5.65
2018-12-25T15:33:12.054Z,6.03
2018-12-25T15:35:42.502Z,6.37
2018-12-25T15:38:13.258Z,6.87
2018-12-25T15:40:43.576Z,6.20
2018-12-25T15:43:14.004Z,6.37
2018-12-25T15:45:44.410Z,7.97
2018-12-25T15:48:17.269Z,7.95
2018-12-25T15:50:47.669Z,10.15
2018-12-25T15:53:18.546Z,11.85
2018-12-25T15:55:49.239Z,12.25
2018-12-25T15:58:21.980Z,12.53
2018-12-25T16:00:52.367Z,12.85
2018-12-25T16:03:23.193Z,14.30
2018-12-25T16:05:53.531Z,13.40
2018-12-25T16:08:23.919Z,14.28
2018-12-25T16:10:54.345Z,13.90
2018-12-25T16:13:25.107Z,13.65
2018-12-25T16:15:55.788Z,13.83
2018-12-25T16:18:26.121Z,14.43
2018-12-25T16:20:56.560Z,13.70
2018-12-25T16:23:26.994Z,14.13
2018-12-25T16:25:57.871Z,13.30
2018-12-25T16:28:28.319Z,13.70
2018-12-25T16:30:58.733Z,14.55
2018-12-25T16:33:29.100Z,14.05
2018-12-25T16:35:59.646Z,13.32
2018-12-25T16:38:30.099Z,12.78
2018-12-25T16:41:00.947Z,13.85
2018-12-25T16:43:31.403Z,13.45
2018-12-25T16:46:02.107Z,13.15
2018-12-25T16:48:32.493Z,12.68
2018-12-25T16:51:03.583Z,13.30
2018-12-25T16:53:34.816Z,13.45
2018-12-25T16:56:05.309Z,12.75
2018-12-25T16:58:38.333Z,12.60
2018-12-25T17:01:08.819Z,12.53
2018-12-25T17:03:39.240Z,13.30
2018-12-25T17:06:09.715Z,13.25
2018-12-25T17:08:40.152Z,13.62
2018-12-25T17:11:11.310Z,13.30
2018-12-25T17:13:41.658Z,14.23
2018-12-25T17:16:13.647Z,15.08
2018-12-25T17:18:45.060Z,14.63
2018-12-25T17:21:16.759Z,14.35
2018-12-25T17:23:47.924Z,14.60
2018-12-25T17:26:18.239Z,15.00
2018-12-25T17:28:48.894Z,15.23
2018-12-25T17:31:21.821Z,15.10
2018-12-25T17:33:52.289Z,13.98
2018-12-25T17:36:22.691Z,14.70
2018-12-25T17:38:53.291Z,15.13
2018-12-25T17:41:23.691Z,15.20
2018-12-25T17:43:54.348Z,14.80
2018-12-25T17:46:24.763Z,14.80
2018-12-25T17:48:55.238Z,14.60
2018-12-25T17:51:25.852Z,14.15
2018-12-25T17:53:56.235Z,14.90
2018-12-25T17:56:26.576Z,14.03
2018-12-25T17:58:57.253Z,15.28
2018-12-25T18:01:27.682Z,15.23
2018-12-25T18:03:58.151Z,13.78
2018-12-25T18:06:28.559Z,14.07
2018-12-25T18:08:58.907Z,13.58
2018-12-25T18:11:29.243Z,13.80
2018-12-25T18:13:59.531Z,14.43
2018-12-25T18:16:30.209Z,13.83
2018-12-25T18:19:00.967Z,13.25
2018-12-25T18:21:33.187Z,12.80
2018-12-25T18:24:03.557Z,13.53
2018-12-25T18:26:33.998Z,13.13
2018-12-25T18:29:04.514Z,13.03
2018-12-25T18:31:34.908Z,11.88
2018-12-25T18:34:05.720Z,12.33
2018-12-25T18:36:36.047Z,13.30
2018-12-25T18:39:07.635Z,13.55
2018-12-25T18:41:37.997Z,13.88
2018-12-25T18:44:09.275Z,13.58
2018-12-25T18:46:39.682Z,15.68
2018-12-25T18:49:10.157Z,15.43
2018-12-25T18:51:40.571Z,15.28
2018-12-25T18:54:11.763Z,15.43
2018-12-25T18:56:42.183Z,14.18
2018-12-25T18:59:12.834Z,13.35
2018-12-25T19:01:43.192Z,13.25
2018-12-25T19:04:13.624Z,13.70
2018-12-25T19:06:43.957Z,13.95
2018-12-25T19:09:14.499Z,14.23
2018-12-25T19:11:45.056Z,14.35
2018-12-25T19:14:15.604Z,13.70
2018-12-25T19:16:48.190Z,12.98
2018-12-25T19:19:18.684Z,14.73
2018-12-25T19:21:49.034Z,13.22
2018-12-25T19:24:19.562Z,12.85
2018-12-25T19:26:50.189Z,14.78
2018-12-25T19:29:20.767Z,15.75
2018-12-25T19:31:51.199Z,15.20
2018-12-25T19:34:21.648Z,15.50
2018-12-25T19:36:52.205Z,16.23
2018-12-25T19:39:22.666Z,16.97
2018-12-25T19:41:54.787Z,16.23
2018-12-25T19:44:25.153Z,17.60
2018-12-25T19:46:55.616Z,16.55
2018-12-25T19:49:26.265Z,17.60
2018-12-25T19:51:56.778Z,18.20
2018-12-25T19:54:27.312Z,18.10
2018-12-25T19:56:57.705Z,16.77
2018-12-25T19:59:28.727Z,17.87
2018-12-25T20:01:59.159Z,16.40
2018-12-25T20:04:56.305Z,16.02
2018-12-25T20:07:54.182Z,16.25
2018-12-25T20:11:03.271Z,16.57
2018-12-25T20:14:22.455Z,16.55
2018-12-25T20:17:18.206Z,17.10
2018-12-25T20:20:08.059Z,17.20
2018-12-25T20:23:13.377Z,17.85
2018-12-25T20:26:08.067Z,17.87
2018-12-25T20:29:34.796Z,18.40
2018-12-25T20:32:25.358Z,17.67
2018-12-25T20:35:16.540Z,18.12
2018-12-25T20:38:43.159Z,17.23
2018-12-25T20:41:46.639Z,15.95
2018-12-25T20:45:02.863Z,15.93
2018-12-25T20:48:24.248Z,18.50
2018-12-25T20:52:03.554Z,19.02
2018-12-25T20:55:33.699Z,17.25
2018-12-25T20:58:38.605Z,17.37
2018-12-25T21:01:59.784Z,16.15
2018-12-25T21:05:03.672Z,17.75
2018-12-25T21:08:13.099Z,17.27
2018-12-25T21:11:43.344Z,18.42
2018-12-25T21:14:47.872Z,16.50
2018-12-25T21:17:47.334Z,17.85
2018-12-25T21:21:10.596Z,17.82
2018-12-25T21:24:16.538Z,18.07
2018-12-25T21:27:31.665Z,17.50
2018-12-25T21:30:06.808Z,18.27
2018-12-25T21:32:42.346Z,18.52
2018-12-25T21:35:19.027Z,18.40
2018-12-25T21:37:50.062Z,19.85
2018-12-25T21:40:20.888Z,20.25
2018-12-25T21:42:52.374Z,19.57
2018-12-25T21:45:23.315Z,19.80
2018-12-25T21:47:55.063Z,19.00
2018-12-25T21:50:25.541Z,19.48
2018-12-25T21:52:56.076Z,20.10
2018-12-25T21:55:27.006Z,19.05
2018-12-25T21:57:57.972Z,19.17
2018-12-25T22:00:31.776Z,19.80
2018-12-25T22:03:03.714Z,19.15
2018-12-25T22:05:35.292Z,18.40
2018-12-25T22:08:05.675Z,18.65
2018-12-25T22:10:36.279Z,18.42
2018-12-25T22:13:06.864Z,18.30
2018-12-25T22:15:38.655Z,18.30
2018-12-25T22:18:10.861Z,19.15
2018-12-25T22:20:41.701Z,18.35
2018-12-25T22:23:12.181Z,18.98
2018-12-25T22:25:42.908Z,17.75
2018-12-25T22:28:14.727Z,18.90
2018-12-25T22:30:45.334Z,19.02
2018-12-25T22:33:17.233Z,18.27
2018-12-25T22:35:47.613Z,19.20
2018-12-25T22:38:19.223Z,19.10
2018-12-25T22:40:49.686Z,19.77
2018-12-25T22:43:22.243Z,19.75
2018-12-25T22:45:52.672Z,18.98
2018-12-25T22:48:23.863Z,19.87
2018-12-25T22:50:54.273Z,20.90
2018-12-25T22:53:25.039Z,20.62
2018-12-25T22:55:55.485Z,20.68
2018-12-25T22:58:26.647Z,21.70
2018-12-25T23:00:57.145Z,19.67
2018-12-25T23:03:28.346Z,20.45
2018-12-25T23:05:58.696Z,20.75
2018-12-25T23:08:29.148Z,20.72
2018-12-25T23:10:59.611Z,19.75
2018-12-25T23:13:29.964Z,19.67
2018-12-25T23:16:00.453Z,20.05
2018-12-25T23:18:30.862Z,21.80
2018-12-25T23:21:01.288Z,20.45
2018-12-25T23:23:33.256Z,21.00
2018-12-25T23:26:03.778Z,21.50
2018-12-25T23:28:34.234Z,21.20
2018-12-25T23:31:04.652Z,20.02
2018-12-25T23:33:35.092Z,19.12
2018-12-25T23:36:05.504Z,19.75
2018-12-25T23:38:35.947Z,20.32
2018-12-25T23:41:06.258Z,19.67
2018-12-25T23:43:36.830Z,19.37
2018-12-25T23:46:09.165Z,19.80
2018-12-25T23:48:40.670Z,20.23
2018-12-25T23:51:11.140Z,20.12
2018-12-25T23:53:41.601Z,20.90
2018-12-25T23:56:24.321Z,20.23
2018-12-25T23:58:54.831Z,20.97
